sensor_id;sensor_type;location;lat;lon;timestamp;P1;durP1;ratioP1;P2;durP2;ratioP2
26080;SDS011;13991;51.174;4.438;2024-01-06T00:02:05;9.10;;;1.67;;
26080;SDS011;13991;51.174;4.438;2024-01-06T00:04:31;10.97;;;1.93;;
26080;SDS011;13991;51.174;4.438;2024-01-06T00:06:57;14.43;;;1.73;;
26080;SDS011;13991;51.174;4.438;2024-01-06T00:09:23;19.07;;;2.50;;
26080;SDS011;13991;51.174;4.438;2024-01-06T00:11:48;14.33;;;1.90;;
26080;SDS011;13991;51.174;4.438;2024-01-06T00:14:14;12.00;;;1.67;;
26080;SDS011;13991;51.174;4.438;2024-01-06T00:16:39;14.80;;;1.80;;
26080;SDS011;13991;51.174;4.438;2024-01-06T00:19:05;5.63;;;1.70;;
26080;SDS011;13991;51.174;4.438;2024-01-06T00:21:31;5.83;;;1.63;;
26080;SDS011;13991;51.174;4.438;2024-01-06T00:23:56;7.23;;;2.03;;
26080;SDS011;13991;51.174;4.438;2024-01-06T00:26:22;6.87;;;2.10;;
26080;SDS011;13991;51.174;4.438;2024-01-06T00:28:49;11.03;;;1.93;;
26080;SDS011;13991;51.174;4.438;2024-01-06T00:31:15;13.43;;;2.67;;
26080;SDS011;13991;51.174;4.438;2024-01-06T00:33:44;7.57;;;1.73;;
26080;SDS011;13991;51.174;4.438;2024-01-06T00:36:10;8.67;;;1.93;;
26080;SDS011;13991;51.174;4.438;2024-01-06T00:38:36;12.57;;;1.60;;
26080;SDS011;13991;51.174;4.438;2024-01-06T00:41:01;9.90;;;1.80;;
26080;SDS011;13991;51.174;4.438;2024-01-06T00:43:27;12.50;;;1.63;;
26080;SDS011;13991;51.174;4.438;2024-01-06T00:45:53;9.57;;;1.70;;
26080;SDS011;13991;51.174;4.438;2024-01-06T00:48:18;6.73;;;2.00;;
26080;SDS011;13991;51.174;4.438;2024-01-06T00:50:44;9.87;;;2.80;;
26080;SDS011;13991;51.174;4.438;2024-01-06T00:53:11;8.17;;;2.87;;
26080;SDS011;13991;51.174;4.438;2024-01-06T00:55:36;10.47;;;2.93;;
26080;SDS011;13991;51.174;4.438;2024-01-06T00:58:02;12.70;;;3.63;;
26080;SDS011;13991;51.174;4.438;2024-01-06T01:00:28;6.80;;;3.00;;
26080;SDS011;13991;51.174;4.438;2024-01-06T01:02:53;11.60;;;2.80;;
26080;SDS011;13991;51.174;4.438;2024-01-06T01:05:19;6.10;;;2.90;;
26080;SDS011;13991;51.174;4.438;2024-01-06T01:07:45;5.63;;;1.73;;
26080;SDS011;13991;51.174;4.438;2024-01-06T01:10:10;7.80;;;1.90;;
26080;SDS011;13991;51.174;4.438;2024-01-06T01:12:36;8.70;;;3.20;;
26080;SDS011;13991;51.174;4.438;2024-01-06T01:15:02;9.27;;;2.70;;
26080;SDS011;13991;51.174;4.438;2024-01-06T01:17:28;9.50;;;3.67;;
26080;SDS011;13991;51.174;4.438;2024-01-06T01:19:54;9.93;;;3.60;;
26080;SDS011;13991;51.174;4.438;2024-01-06T01:22:20;14.03;;;5.27;;
26080;SDS011;13991;51.174;4.438;2024-01-06T01:24:46;14.37;;;5.07;;
26080;SDS011;13991;51.174;4.438;2024-01-06T01:27:12;13.83;;;4.53;;
26080;SDS011;13991;51.174;4.438;2024-01-06T01:29:37;15.63;;;5.33;;
26080;SDS011;13991;51.174;4.438;2024-01-06T01:32:03;15.80;;;6.03;;
26080;SDS011;13991;51.174;4.438;2024-01-06T01:34:29;9.57;;;5.47;;
26080;SDS011;13991;51.174;4.438;2024-01-06T01:36:55;12.67;;;6.70;;
26080;SDS011;13991;51.174;4.438;2024-01-06T01:39:20;14.77;;;6.67;;
26080;SDS011;13991;51.174;4.438;2024-01-06T01:41:46;17.87;;;7.13;;
26080;SDS011;13991;51.174;4.438;2024-01-06T01:44:11;18.10;;;6.53;;
26080;SDS011;13991;51.174;4.438;2024-01-06T01:46:37;25.80;;;7.23;;
26080;SDS011;13991;51.174;4.438;2024-01-06T01:49:04;28.70;;;8.33;;
26080;SDS011;13991;51.174;4.438;2024-01-06T01:51:30;22.53;;;8.10;;
26080;SDS011;13991;51.174;4.438;2024-01-06T01:53:58;22.93;;;8.77;;
26080;SDS011;13991;51.174;4.438;2024-01-06T01:56:26;19.50;;;9.47;;
26080;SDS011;13991;51.174;4.438;2024-01-06T01:58:52;32.40;;;10.30;;
26080;SDS011;13991;51.174;4.438;2024-01-06T02:01:18;28.10;;;10.47;;
26080;SDS011;13991;51.174;4.438;2024-01-06T02:03:44;24.30;;;10.70;;
26080;SDS011;13991;51.174;4.438;2024-01-06T02:06:10;25.60;;;9.67;;
26080;SDS011;13991;51.174;4.438;2024-01-06T02:08:36;28.20;;;9.83;;
26080;SDS011;13991;51.174;4.438;2024-01-06T02:11:03;26.87;;;9.80;;
26080;SDS011;13991;51.174;4.438;2024-01-06T02:13:35;31.57;;;9.43;;
26080;SDS011;13991;51.174;4.438;2024-01-06T02:16:03;27.43;;;8.13;;
26080;SDS011;13991;51.174;4.438;2024-01-06T02:18:29;13.57;;;8.17;;
26080;SDS011;13991;51.174;4.438;2024-01-06T02:20:57;23.80;;;8.90;;
26080;SDS011;13991;51.174;4.438;2024-01-06T02:23:24;19.90;;;8.53;;
26080;SDS011;13991;51.174;4.438;2024-01-06T02:25:49;21.73;;;8.17;;
26080;SDS011;13991;51.174;4.438;2024-01-06T02:28:15;26.00;;;9.30;;
26080;SDS011;13991;51.174;4.438;2024-01-06T02:30:41;19.80;;;8.90;;
26080;SDS011;13991;51.174;4.438;2024-01-06T02:33:06;25.20;;;8.90;;
26080;SDS011;13991;51.174;4.438;2024-01-06T02:35:32;20.50;;;9.30;;
26080;SDS011;13991;51.174;4.438;2024-01-06T02:37:58;28.90;;;7.87;;
26080;SDS011;13991;51.174;4.438;2024-01-06T02:40:23;21.20;;;7.93;;
26080;SDS011;13991;51.174;4.438;2024-01-06T02:42:49;22.40;;;7.00;;
26080;SDS011;13991;51.174;4.438;2024-01-06T02:45:14;22.00;;;7.73;;
26080;SDS011;13991;51.174;4.438;2024-01-06T02:47:40;21.40;;;7.27;;
26080;SDS011;13991;51.174;4.438;2024-01-06T02:50:06;13.60;;;7.20;;
26080;SDS011;13991;51.174;4.438;2024-01-06T02:52:32;20.93;;;6.77;;
26080;SDS011;13991;51.174;4.438;2024-01-06T02:54:58;14.00;;;6.57;;
26080;SDS011;13991;51.174;4.438;2024-01-06T02:57:24;17.07;;;6.80;;
26080;SDS011;13991;51.174;4.438;2024-01-06T02:59:49;16.50;;;7.47;;
26080;SDS011;13991;51.174;4.438;2024-01-06T03:02:15;19.93;;;6.83;;
26080;SDS011;13991;51.174;4.438;2024-01-06T03:04:41;13.23;;;6.90;;
26080;SDS011;13991;51.174;4.438;2024-01-06T03:07:07;14.30;;;6.83;;
26080;SDS011;13991;51.174;4.438;2024-01-06T03:09:33;17.10;;;7.80;;
26080;SDS011;13991;51.174;4.438;2024-01-06T03:11:58;12.60;;;6.07;;
26080;SDS011;13991;51.174;4.438;2024-01-06T03:14:24;19.33;;;6.20;;
26080;SDS011;13991;51.174;4.438;2024-01-06T03:16:49;19.87;;;6.97;;
26080;SDS011;13991;51.174;4.438;2024-01-06T03:19:15;17.03;;;6.47;;
26080;SDS011;13991;51.174;4.438;2024-01-06T03:21:41;22.27;;;7.07;;
26080;SDS011;13991;51.174;4.438;2024-01-06T03:24:07;26.13;;;6.57;;
26080;SDS011;13991;51.174;4.438;2024-01-06T03:26:34;21.10;;;7.20;;
26080;SDS011;13991;51.174;4.438;2024-01-06T03:29:00;17.70;;;6.43;;
26080;SDS011;13991;51.174;4.438;2024-01-06T03:31:27;12.93;;;6.30;;
26080;SDS011;13991;51.174;4.438;2024-01-06T03:33:53;14.07;;;6.67;;
26080;SDS011;13991;51.174;4.438;2024-01-06T03:36:20;18.63;;;6.03;;
26080;SDS011;13991;51.174;4.438;2024-01-06T03:38:46;19.63;;;5.83;;
26080;SDS011;13991;51.174;4.438;2024-01-06T03:41:12;18.13;;;6.13;;
26080;SDS011;13991;51.174;4.438;2024-01-06T03:43:37;13.23;;;5.43;;
26080;SDS011;13991;51.174;4.438;2024-01-06T03:46:03;11.00;;;4.50;;
26080;SDS011;13991;51.174;4.438;2024-01-06T03:48:30;15.27;;;4.87;;
26080;SDS011;13991;51.174;4.438;2024-01-06T03:50:57;12.87;;;5.13;;
26080;SDS011;13991;51.174;4.438;2024-01-06T03:53:24;16.60;;;5.17;;
26080;SDS011;13991;51.174;4.438;2024-01-06T03:55:49;12.90;;;6.20;;
26080;SDS011;13991;51.174;4.438;2024-01-06T03:58:15;25.93;;;6.43;;
26080;SDS011;13991;51.174;4.438;2024-01-06T04:00:41;12.23;;;5.87;;
26080;SDS011;13991;51.174;4.438;2024-01-06T04:03:06;13.33;;;5.80;;
26080;SDS011;13991;51.174;4.438;2024-01-06T04:05:33;21.40;;;6.03;;
26080;SDS011;13991;51.174;4.438;2024-01-06T04:07:58;11.20;;;5.30;;
26080;SDS011;13991;51.174;4.438;2024-01-06T04:10:24;18.47;;;5.77;;
26080;SDS011;13991;51.174;4.438;2024-01-06T04:12:49;18.50;;;5.53;;
26080;SDS011;13991;51.174;4.438;2024-01-06T04:15:15;19.87;;;7.00;;
26080;SDS011;13991;51.174;4.438;2024-01-06T04:17:41;15.70;;;6.17;;
26080;SDS011;13991;51.174;4.438;2024-01-06T04:20:07;19.80;;;5.97;;
26080;SDS011;13991;51.174;4.438;2024-01-06T04:22:33;16.90;;;6.10;;
26080;SDS011;13991;51.174;4.438;2024-01-06T04:25:00;10.93;;;5.50;;
26080;SDS011;13991;51.174;4.438;2024-01-06T04:27:26;15.73;;;5.00;;
26080;SDS011;13991;51.174;4.438;2024-01-06T04:29:51;18.17;;;5.13;;
26080;SDS011;13991;51.174;4.438;2024-01-06T04:32:18;16.07;;;5.37;;
26080;SDS011;13991;51.174;4.438;2024-01-06T04:34:44;15.80;;;5.23;;
26080;SDS011;13991;51.174;4.438;2024-01-06T04:37:09;13.87;;;5.10;;
26080;SDS011;13991;51.174;4.438;2024-01-06T04:39:35;15.10;;;5.93;;
26080;SDS011;13991;51.174;4.438;2024-01-06T04:42:00;10.57;;;4.40;;
26080;SDS011;13991;51.174;4.438;2024-01-06T04:44:26;10.00;;;4.63;;
26080;SDS011;13991;51.174;4.438;2024-01-06T04:46:52;17.80;;;5.30;;
26080;SDS011;13991;51.174;4.438;2024-01-06T04:49:17;18.97;;;5.23;;
26080;SDS011;13991;51.174;4.438;2024-01-06T04:51:43;19.03;;;6.00;;
26080;SDS011;13991;51.174;4.438;2024-01-06T04:54:08;17.20;;;5.13;;
26080;SDS011;13991;51.174;4.438;2024-01-06T04:56:34;16.00;;;5.67;;
26080;SDS011;13991;51.174;4.438;2024-01-06T04:58:59;16.30;;;5.37;;
26080;SDS011;13991;51.174;4.438;2024-01-06T05:01:25;16.77;;;4.33;;
26080;SDS011;13991;51.174;4.438;2024-01-06T05:03:51;8.90;;;2.90;;
26080;SDS011;13991;51.174;4.438;2024-01-06T05:06:16;16.17;;;4.50;;
26080;SDS011;13991;51.174;4.438;2024-01-06T05:08:42;15.20;;;4.73;;
26080;SDS011;13991;51.174;4.438;2024-01-06T05:11:10;12.03;;;4.67;;
26080;SDS011;13991;51.174;4.438;2024-01-06T05:13:36;22.63;;;4.43;;
26080;SDS011;13991;51.174;4.438;2024-01-06T05:16:02;11.20;;;4.80;;
26080;SDS011;13991;51.174;4.438;2024-01-06T05:18:28;10.37;;;4.63;;
26080;SDS011;13991;51.174;4.438;2024-01-06T05:20:54;10.20;;;3.93;;
26080;SDS011;13991;51.174;4.438;2024-01-06T05:23:20;11.87;;;4.00;;
26080;SDS011;13991;51.174;4.438;2024-01-06T05:25:46;8.97;;;4.20;;
26080;SDS011;13991;51.174;4.438;2024-01-06T05:28:11;16.33;;;4.80;;
26080;SDS011;13991;51.174;4.438;2024-01-06T05:30:37;8.50;;;3.90;;
26080;SDS011;13991;51.174;4.438;2024-01-06T05:33:02;7.77;;;3.50;;
26080;SDS011;13991;51.174;4.438;2024-01-06T05:35:29;14.97;;;3.67;;
26080;SDS011;13991;51.174;4.438;2024-01-06T05:37:55;9.33;;;3.87;;
26080;SDS011;13991;51.174;4.438;2024-01-06T05:40:21;14.40;;;3.87;;
26080;SDS011;13991;51.174;4.438;2024-01-06T05:42:46;12.17;;;4.67;;
26080;SDS011;13991;51.174;4.438;2024-01-06T05:45:12;9.37;;;3.97;;
26080;SDS011;13991;51.174;4.438;2024-01-06T05:47:38;11.30;;;4.93;;
26080;SDS011;13991;51.174;4.438;2024-01-06T05:50:04;10.97;;;4.30;;
26080;SDS011;13991;51.174;4.438;2024-01-06T05:52:30;10.33;;;4.30;;
26080;SDS011;13991;51.174;4.438;2024-01-06T05:54:56;9.07;;;4.70;;
26080;SDS011;13991;51.174;4.438;2024-01-06T05:57:23;17.73;;;5.27;;
26080;SDS011;13991;51.174;4.438;2024-01-06T05:59:48;12.53;;;6.20;;
26080;SDS011;13991;51.174;4.438;2024-01-06T06:02:14;17.17;;;6.17;;
26080;SDS011;13991;51.174;4.438;2024-01-06T06:04:40;15.23;;;6.87;;
26080;SDS011;13991;51.174;4.438;2024-01-06T06:07:05;15.40;;;6.43;;
26080;SDS011;13991;51.174;4.438;2024-01-06T06:09:31;18.60;;;6.33;;
26080;SDS011;13991;51.174;4.438;2024-01-06T06:11:59;17.93;;;7.20;;
26080;SDS011;13991;51.174;4.438;2024-01-06T06:14:25;15.83;;;7.47;;
26080;SDS011;13991;51.174;4.438;2024-01-06T06:16:50;17.37;;;7.23;;
26080;SDS011;13991;51.174;4.438;2024-01-06T06:19:16;16.50;;;6.80;;
26080;SDS011;13991;51.174;4.438;2024-01-06T06:21:43;17.43;;;7.97;;
26080;SDS011;13991;51.174;4.438;2024-01-06T06:24:09;23.53;;;8.73;;
26080;SDS011;13991;51.174;4.438;2024-01-06T06:26:34;17.40;;;8.07;;
26080;SDS011;13991;51.174;4.438;2024-01-06T06:29:00;23.83;;;8.60;;
26080;SDS011;13991;51.174;4.438;2024-01-06T06:31:26;18.70;;;8.07;;
26080;SDS011;13991;51.174;4.438;2024-01-06T06:33:52;18.90;;;8.30;;
26080;SDS011;13991;51.174;4.438;2024-01-06T06:36:17;20.67;;;7.83;;
26080;SDS011;13991;51.174;4.438;2024-01-06T06:38:43;21.93;;;8.07;;
26080;SDS011;13991;51.174;4.438;2024-01-06T06:41:09;15.13;;;7.73;;
26080;SDS011;13991;51.174;4.438;2024-01-06T06:43:34;19.03;;;8.23;;
26080;SDS011;13991;51.174;4.438;2024-01-06T06:46:00;17.20;;;7.47;;
26080;SDS011;13991;51.174;4.438;2024-01-06T06:48:26;14.90;;;6.63;;
26080;SDS011;13991;51.174;4.438;2024-01-06T06:50:51;13.43;;;5.77;;
26080;SDS011;13991;51.174;4.438;2024-01-06T06:53:17;18.63;;;6.90;;
26080;SDS011;13991;51.174;4.438;2024-01-06T06:55:43;16.37;;;7.53;;
26080;SDS011;13991;51.174;4.438;2024-01-06T06:58:08;20.07;;;7.20;;
26080;SDS011;13991;51.174;4.438;2024-01-06T07:00:34;16.37;;;6.77;;
26080;SDS011;13991;51.174;4.438;2024-01-06T07:03:00;22.90;;;8.43;;
26080;SDS011;13991;51.174;4.438;2024-01-06T07:05:26;13.63;;;6.43;;
26080;SDS011;13991;51.174;4.438;2024-01-06T07:07:52;14.33;;;7.07;;
26080;SDS011;13991;51.174;4.438;2024-01-06T07:10:17;12.70;;;6.07;;
26080;SDS011;13991;51.174;4.438;2024-01-06T07:12:43;14.47;;;5.60;;
26080;SDS011;13991;51.174;4.438;2024-01-06T07:15:09;13.70;;;6.03;;
26080;SDS011;13991;51.174;4.438;2024-01-06T07:17:36;17.93;;;5.97;;
26080;SDS011;13991;51.174;4.438;2024-01-06T07:20:03;10.63;;;5.53;;
26080;SDS011;13991;51.174;4.438;2024-01-06T07:22:32;12.70;;;5.23;;
26080;SDS011;13991;51.174;4.438;2024-01-06T07:24:59;12.73;;;6.07;;
26080;SDS011;13991;51.174;4.438;2024-01-06T07:27:26;13.73;;;6.97;;
26080;SDS011;13991;51.174;4.438;2024-01-06T07:29:51;12.47;;;5.93;;
26080;SDS011;13991;51.174;4.438;2024-01-06T07:32:17;14.87;;;6.47;;
26080;SDS011;13991;51.174;4.438;2024-01-06T07:34:43;16.17;;;6.63;;
26080;SDS011;13991;51.174;4.438;2024-01-06T07:37:09;15.00;;;6.87;;
26080;SDS011;13991;51.174;4.438;2024-01-06T07:39:34;15.17;;;7.07;;
26080;SDS011;13991;51.174;4.438;2024-01-06T07:42:00;15.00;;;6.30;;
26080;SDS011;13991;51.174;4.438;2024-01-06T07:44:25;21.43;;;6.80;;
26080;SDS011;13991;51.174;4.438;2024-01-06T07:46:52;18.53;;;6.80;;
26080;SDS011;13991;51.174;4.438;2024-01-06T07:49:18;15.63;;;7.13;;
26080;SDS011;13991;51.174;4.438;2024-01-06T07:51:43;13.03;;;6.37;;
26080;SDS011;13991;51.174;4.438;2024-01-06T07:54:09;13.40;;;6.63;;
26080;SDS011;13991;51.174;4.438;2024-01-06T07:56:36;13.13;;;6.80;;
26080;SDS011;13991;51.174;4.438;2024-01-06T07:59:02;10.67;;;5.50;;
26080;SDS011;13991;51.174;4.438;2024-01-06T08:01:29;12.17;;;6.10;;
26080;SDS011;13991;51.174;4.438;2024-01-06T08:03:55;15.37;;;6.70;;
26080;SDS011;13991;51.174;4.438;2024-01-06T08:06:20;14.87;;;7.70;;
26080;SDS011;13991;51.174;4.438;2024-01-06T08:08:46;15.17;;;7.07;;
26080;SDS011;13991;51.174;4.438;2024-01-06T08:11:12;17.83;;;7.07;;
26080;SDS011;13991;51.174;4.438;2024-01-06T08:13:38;16.10;;;7.23;;
26080;SDS011;13991;51.174;4.438;2024-01-06T08:16:03;15.67;;;6.87;;
26080;SDS011;13991;51.174;4.438;2024-01-06T08:18:30;17.83;;;6.63;;
26080;SDS011;13991;51.174;4.438;2024-01-06T08:20:56;13.63;;;6.70;;
26080;SDS011;13991;51.174;4.438;2024-01-06T08:23:22;15.83;;;7.87;;
26080;SDS011;13991;51.174;4.438;2024-01-06T08:25:48;17.17;;;7.17;;
26080;SDS011;13991;51.174;4.438;2024-01-06T08:28:13;13.33;;;6.00;;
26080;SDS011;13991;51.174;4.438;2024-01-06T08:30:43;12.00;;;5.73;;
26080;SDS011;13991;51.174;4.438;2024-01-06T08:33:09;10.37;;;4.63;;
26080;SDS011;13991;51.174;4.438;2024-01-06T08:35:35;16.20;;;5.40;;
26080;SDS011;13991;51.174;4.438;2024-01-06T08:38:05;12.23;;;4.87;;
26080;SDS011;13991;51.174;4.438;2024-01-06T08:40:32;10.57;;;5.03;;
26080;SDS011;13991;51.174;4.438;2024-01-06T08:42:58;12.73;;;4.90;;
26080;SDS011;13991;51.174;4.438;2024-01-06T08:45:24;9.03;;;4.57;;
26080;SDS011;13991;51.174;4.438;2024-01-06T08:47:49;8.23;;;3.90;;
26080;SDS011;13991;51.174;4.438;2024-01-06T08:50:15;9.60;;;4.73;;
26080;SDS011;13991;51.174;4.438;2024-01-06T08:52:43;9.47;;;4.30;;
26080;SDS011;13991;51.174;4.438;2024-01-06T08:55:09;10.00;;;4.43;;
26080;SDS011;13991;51.174;4.438;2024-01-06T08:57:34;11.53;;;4.43;;
26080;SDS011;13991;51.174;4.438;2024-01-06T09:00:00;13.03;;;3.90;;
26080;SDS011;13991;51.174;4.438;2024-01-06T09:02:25;10.63;;;3.97;;
26080;SDS011;13991;51.174;4.438;2024-01-06T09:04:51;8.63;;;3.67;;
26080;SDS011;13991;51.174;4.438;2024-01-06T09:07:17;12.67;;;4.13;;
26080;SDS011;13991;51.174;4.438;2024-01-06T09:09:43;14.93;;;4.50;;
26080;SDS011;13991;51.174;4.438;2024-01-06T09:12:09;11.23;;;4.40;;
26080;SDS011;13991;51.174;4.438;2024-01-06T09:14:34;10.07;;;4.10;;
26080;SDS011;13991;51.174;4.438;2024-01-06T09:17:00;10.77;;;4.90;;
26080;SDS011;13991;51.174;4.438;2024-01-06T09:19:26;8.80;;;3.90;;
26080;SDS011;13991;51.174;4.438;2024-01-06T09:21:53;7.77;;;4.00;;
26080;SDS011;13991;51.174;4.438;2024-01-06T09:24:19;11.07;;;4.37;;
26080;SDS011;13991;51.174;4.438;2024-01-06T09:26:45;15.13;;;4.17;;
26080;SDS011;13991;51.174;4.438;2024-01-06T09:29:11;8.80;;;4.17;;
26080;SDS011;13991;51.174;4.438;2024-01-06T09:31:37;6.30;;;3.73;;
26080;SDS011;13991;51.174;4.438;2024-01-06T09:34:03;10.70;;;3.67;;
26080;SDS011;13991;51.174;4.438;2024-01-06T09:36:30;9.10;;;3.70;;
26080;SDS011;13991;51.174;4.438;2024-01-06T09:38:56;15.57;;;4.50;;
26080;SDS011;13991;51.174;4.438;2024-01-06T09:41:22;10.07;;;3.67;;
26080;SDS011;13991;51.174;4.438;2024-01-06T09:43:49;10.57;;;4.27;;
26080;SDS011;13991;51.174;4.438;2024-01-06T09:46:17;14.73;;;4.57;;
26080;SDS011;13991;51.174;4.438;2024-01-06T09:48:50;5.57;;;3.13;;
26080;SDS011;13991;51.174;4.438;2024-01-06T09:51:17;9.23;;;4.40;;
26080;SDS011;13991;51.174;4.438;2024-01-06T09:56:22;12.03;;;4.37;;
26080;SDS011;13991;51.174;4.438;2024-01-06T09:58:50;13.77;;;4.80;;
26080;SDS011;13991;51.174;4.438;2024-01-06T10:01:17;11.17;;;3.83;;
26080;SDS011;13991;51.174;4.438;2024-01-06T10:03:43;9.93;;;4.17;;
26080;SDS011;13991;51.174;4.438;2024-01-06T10:06:10;6.87;;;4.03;;
26080;SDS011;13991;51.174;4.438;2024-01-06T10:08:38;10.23;;;4.43;;
26080;SDS011;13991;51.174;4.438;2024-01-06T10:11:05;9.47;;;4.47;;
26080;SDS011;13991;51.174;4.438;2024-01-06T10:13:33;12.17;;;4.87;;
26080;SDS011;13991;51.174;4.438;2024-01-06T10:15:59;10.70;;;5.23;;
26080;SDS011;13991;51.174;4.438;2024-01-06T10:18:25;11.00;;;5.10;;
26080;SDS011;13991;51.174;4.438;2024-01-06T10:20:52;14.13;;;5.53;;
26080;SDS011;13991;51.174;4.438;2024-01-06T10:23:18;9.97;;;5.53;;
26080;SDS011;13991;51.174;4.438;2024-01-06T10:25:47;8.73;;;4.57;;
26080;SDS011;13991;51.174;4.438;2024-01-06T10:28:12;13.27;;;5.07;;
26080;SDS011;13991;51.174;4.438;2024-01-06T10:30:40;10.90;;;5.57;;
26080;SDS011;13991;51.174;4.438;2024-01-06T10:33:09;17.43;;;5.83;;
26080;SDS011;13991;51.174;4.438;2024-01-06T10:35:36;11.20;;;5.43;;
26080;SDS011;13991;51.174;4.438;2024-01-06T10:38:02;10.37;;;5.23;;
26080;SDS011;13991;51.174;4.438;2024-01-06T10:40:28;16.57;;;5.33;;
26080;SDS011;13991;51.174;4.438;2024-01-06T10:42:54;8.57;;;4.53;;
26080;SDS011;13991;51.174;4.438;2024-01-06T10:45:22;11.97;;;4.37;;
26080;SDS011;13991;51.174;4.438;2024-01-06T10:47:48;8.07;;;3.97;;
26080;SDS011;13991;51.174;4.438;2024-01-06T10:50:17;9.33;;;4.60;;
26080;SDS011;13991;51.174;4.438;2024-01-06T10:52:43;6.30;;;3.50;;
26080;SDS011;13991;51.174;4.438;2024-01-06T10:55:08;5.63;;;3.90;;
26080;SDS011;13991;51.174;4.438;2024-01-06T10:57:36;6.77;;;3.50;;
26080;SDS011;13991;51.174;4.438;2024-01-06T11:00:03;6.97;;;3.00;;
26080;SDS011;13991;51.174;4.438;2024-01-06T11:02:31;4.80;;;3.43;;
26080;SDS011;13991;51.174;4.438;2024-01-06T11:04:57;6.13;;;3.47;;
26080;SDS011;13991;51.174;4.438;2024-01-06T11:07:24;4.60;;;3.23;;
26080;SDS011;13991;51.174;4.438;2024-01-06T11:09:56;9.03;;;3.80;;
26080;SDS011;13991;51.174;4.438;2024-01-06T11:12:23;10.07;;;4.50;;
26080;SDS011;13991;51.174;4.438;2024-01-06T11:14:51;10.60;;;4.60;;
26080;SDS011;13991;51.174;4.438;2024-01-06T11:20:18;16.60;;;4.53;;
26080;SDS011;13991;51.174;4.438;2024-01-06T11:22:46;11.20;;;4.93;;
26080;SDS011;13991;51.174;4.438;2024-01-06T11:25:21;8.90;;;5.00;;
26080;SDS011;13991;51.174;4.438;2024-01-06T11:27:48;14.20;;;4.90;;
26080;SDS011;13991;51.174;4.438;2024-01-06T11:30:35;13.47;;;5.70;;
26080;SDS011;13991;51.174;4.438;2024-01-06T11:33:00;9.50;;;5.37;;
26080;SDS011;13991;51.174;4.438;2024-01-06T11:35:29;12.90;;;5.67;;
26080;SDS011;13991;51.174;4.438;2024-01-06T11:37:56;11.13;;;4.60;;
26080;SDS011;13991;51.174;4.438;2024-01-06T11:40:26;11.30;;;4.87;;
26080;SDS011;13991;51.174;4.438;2024-01-06T11:43:01;9.77;;;3.93;;
26080;SDS011;13991;51.174;4.438;2024-01-06T11:45:30;8.03;;;4.03;;
26080;SDS011;13991;51.174;4.438;2024-01-06T11:48:04;11.17;;;4.20;;
26080;SDS011;13991;51.174;4.438;2024-01-06T11:50:32;10.03;;;4.17;;
26080;SDS011;13991;51.174;4.438;2024-01-06T11:52:59;11.83;;;3.80;;
26080;SDS011;13991;51.174;4.438;2024-01-06T11:55:25;9.57;;;4.03;;
26080;SDS011;13991;51.174;4.438;2024-01-06T11:57:56;9.83;;;3.97;;
26080;SDS011;13991;51.174;4.438;2024-01-06T12:00:30;10.00;;;5.05;;
26080;SDS011;13991;51.174;4.438;2024-01-06T12:03:00;8.57;;;3.80;;
26080;SDS011;13991;51.174;4.438;2024-01-06T12:05:26;8.70;;;3.73;;
26080;SDS011;13991;51.174;4.438;2024-01-06T12:08:02;11.03;;;3.87;;
26080;SDS011;13991;51.174;4.438;2024-01-06T12:10:31;8.47;;;3.63;;
26080;SDS011;13991;51.174;4.438;2024-01-06T12:12:59;6.93;;;3.20;;
26080;SDS011;13991;51.174;4.438;2024-01-06T12:15:28;12.50;;;4.33;;
26080;SDS011;13991;51.174;4.438;2024-01-06T12:17:56;7.43;;;3.17;;
26080;SDS011;13991;51.174;4.438;2024-01-06T12:20:23;4.43;;;2.67;;
26080;SDS011;13991;51.174;4.438;2024-01-06T12:22:52;4.87;;;2.83;;
26080;SDS011;13991;51.174;4.438;2024-01-06T12:25:22;7.17;;;3.50;;
26080;SDS011;13991;51.174;4.438;2024-01-06T12:27:49;8.30;;;3.43;;
26080;SDS011;13991;51.174;4.438;2024-01-06T12:30:16;14.27;;;4.30;;
26080;SDS011;13991;51.174;4.438;2024-01-06T12:32:46;15.93;;;4.40;;
26080;SDS011;13991;51.174;4.438;2024-01-06T12:35:14;6.87;;;3.57;;
26080;SDS011;13991;51.174;4.438;2024-01-06T12:37:43;7.10;;;3.43;;
26080;SDS011;13991;51.174;4.438;2024-01-06T12:40:10;9.30;;;3.33;;
26080;SDS011;13991;51.174;4.438;2024-01-06T12:42:37;5.47;;;3.40;;
26080;SDS011;13991;51.174;4.438;2024-01-06T12:45:03;7.47;;;3.93;;
26080;SDS011;13991;51.174;4.438;2024-01-06T12:47:31;7.37;;;2.90;;
26080;SDS011;13991;51.174;4.438;2024-01-06T12:49:57;6.03;;;3.43;;
26080;SDS011;13991;51.174;4.438;2024-01-06T12:52:23;7.60;;;3.37;;
26080;SDS011;13991;51.174;4.438;2024-01-06T12:54:49;5.00;;;3.37;;
26080;SDS011;13991;51.174;4.438;2024-01-06T12:57:15;6.23;;;3.20;;
26080;SDS011;13991;51.174;4.438;2024-01-06T12:59:41;7.00;;;3.60;;
26080;SDS011;13991;51.174;4.438;2024-01-06T13:02:06;4.93;;;3.30;;
26080;SDS011;13991;51.174;4.438;2024-01-06T13:04:32;5.80;;;3.47;;
26080;SDS011;13991;51.174;4.438;2024-01-06T13:06:59;6.53;;;3.17;;
26080;SDS011;13991;51.174;4.438;2024-01-06T13:09:25;10.37;;;4.10;;
26080;SDS011;13991;51.174;4.438;2024-01-06T13:11:52;6.90;;;3.30;;
26080;SDS011;13991;51.174;4.438;2024-01-06T13:14:20;11.07;;;3.90;;
26080;SDS011;13991;51.174;4.438;2024-01-06T13:16:46;9.13;;;3.83;;
26080;SDS011;13991;51.174;4.438;2024-01-06T13:19:12;7.37;;;3.23;;
26080;SDS011;13991;51.174;4.438;2024-01-06T13:21:38;5.70;;;3.30;;
26080;SDS011;13991;51.174;4.438;2024-01-06T13:24:05;9.37;;;3.50;;
26080;SDS011;13991;51.174;4.438;2024-01-06T13:26:31;5.53;;;3.10;;
26080;SDS011;13991;51.174;4.438;2024-01-06T13:28:57;10.73;;;4.17;;
26080;SDS011;13991;51.174;4.438;2024-01-06T13:31:24;8.97;;;3.13;;
26080;SDS011;13991;51.174;4.438;2024-01-06T13:33:49;7.63;;;3.63;;
26080;SDS011;13991;51.174;4.438;2024-01-06T13:36:17;12.13;;;4.40;;
26080;SDS011;13991;51.174;4.438;2024-01-06T13:38:45;7.20;;;3.80;;
26080;SDS011;13991;51.174;4.438;2024-01-06T13:41:10;8.60;;;4.37;;
26080;SDS011;13991;51.174;4.438;2024-01-06T13:43:36;6.37;;;3.70;;
26080;SDS011;13991;51.174;4.438;2024-01-06T13:46:02;10.57;;;4.13;;
26080;SDS011;13991;51.174;4.438;2024-01-06T13:48:28;8.00;;;3.20;;
26080;SDS011;13991;51.174;4.438;2024-01-06T13:50:53;9.67;;;3.60;;
26080;SDS011;13991;51.174;4.438;2024-01-06T13:53:19;8.67;;;3.20;;
26080;SDS011;13991;51.174;4.438;2024-01-06T13:55:45;7.00;;;3.88;;
26080;SDS011;13991;51.174;4.438;2024-01-06T13:58:10;6.87;;;3.37;;
26080;SDS011;13991;51.174;4.438;2024-01-06T14:00:36;10.07;;;3.50;;
26080;SDS011;13991;51.174;4.438;2024-01-06T14:03:02;11.93;;;4.13;;
26080;SDS011;13991;51.174;4.438;2024-01-06T14:05:29;6.17;;;3.53;;
26080;SDS011;13991;51.174;4.438;2024-01-06T14:07:55;10.30;;;3.23;;
26080;SDS011;13991;51.174;4.438;2024-01-06T14:10:21;13.80;;;3.77;;
26080;SDS011;13991;51.174;4.438;2024-01-06T14:12:47;19.93;;;7.63;;
26080;SDS011;13991;51.174;4.438;2024-01-06T14:15:12;25.27;;;9.00;;
26080;SDS011;13991;51.174;4.438;2024-01-06T14:17:38;12.43;;;5.80;;
26080;SDS011;13991;51.174;4.438;2024-01-06T14:20:05;8.47;;;3.60;;
26080;SDS011;13991;51.174;4.438;2024-01-06T14:22:34;7.33;;;3.93;;
26080;SDS011;13991;51.174;4.438;2024-01-06T14:25:00;6.80;;;3.63;;
26080;SDS011;13991;51.174;4.438;2024-01-06T14:27:28;10.00;;;3.00;;
26080;SDS011;13991;51.174;4.438;2024-01-06T14:29:54;8.83;;;3.40;;
26080;SDS011;13991;51.174;4.438;2024-01-06T14:32:21;10.77;;;3.00;;
26080;SDS011;13991;51.174;4.438;2024-01-06T14:34:48;6.60;;;3.63;;
26080;SDS011;13991;51.174;4.438;2024-01-06T14:37:15;6.00;;;3.27;;
26080;SDS011;13991;51.174;4.438;2024-01-06T14:39:41;8.83;;;3.07;;